createdAt,value
2019-03-17T00:01:57.575Z,4.83
2019-03-17T00:04:31.773Z,4.82
2019-03-17T00:07:05.510Z,4.82
2019-03-17T00:09:37.880Z,4.81
2019-03-17T00:12:10.509Z,4.82
2019-03-17T00:14:43.063Z,4.79
2019-03-17T00:17:16.477Z,4.78
2019-03-17T00:19:48.899Z,4.80
2019-03-17T00:22:21.378Z,4.78
2019-03-17T00:24:54.728Z,4.78
2019-03-17T00:27:27.185Z,4.80
2019-03-17T00:29:59.720Z,4.82
2019-03-17T00:32:32.198Z,4.82
2019-03-17T00:35:03.468Z,4.81
2019-03-17T00:37:37.171Z,4.81
2019-03-17T00:40:09.849Z,4.81
2019-03-17T00:42:42.568Z,4.86
2019-03-17T00:45:15.148Z,4.86
2019-03-17T00:47:47.622Z,4.86
2019-03-17T00:50:20.088Z,4.86
2019-03-17T00:52:52.493Z,4.86
2019-03-17T00:55:25.398Z,4.87
2019-03-17T00:57:59.620Z,4.88
2019-03-17T01:00:32.296Z,4.93
2019-03-17T01:03:04.969Z,4.91
2019-03-17T01:05:37.488Z,4.91
2019-03-17T01:08:09.908Z,4.90
2019-03-17T01:10:42.409Z,4.92
2019-03-17T01:13:14.760Z,4.95
2019-03-17T01:15:47.242Z,5.01
2019-03-17T01:18:19.529Z,5.06
2019-03-17T01:20:51.997Z,5.07
2019-03-17T01:23:24.688Z,5.08
2019-03-17T01:25:58.595Z,5.07
2019-03-17T01:28:31.017Z,5.06
2019-03-17T01:31:03.430Z,5.05
2019-03-17T01:33:35.748Z,5.01
2019-03-17T01:36:08.262Z,5.05
2019-03-17T01:38:40.648Z,5.04
2019-03-17T01:41:13.028Z,5.06
2019-03-17T01:43:45.528Z,5.07
2019-03-17T01:46:18.078Z,5.09
2019-03-17T01:48:50.436Z,5.08
2019-03-17T01:51:21.566Z,5.09
2019-03-17T01:53:53.771Z,5.05
2019-03-17T01:56:26.340Z,5.05
2019-03-17T01:58:58.648Z,5.11
2019-03-17T02:01:31.047Z,5.09
2019-03-17T02:04:03.570Z,5.08
2019-03-17T02:06:35.837Z,5.11
2019-03-17T02:09:08.186Z,5.16
2019-03-17T02:11:40.468Z,5.19
2019-03-17T02:14:13.298Z,5.19
2019-03-17T02:19:23.319Z,5.24
2019-03-17T02:21:55.507Z,5.21
2019-03-17T02:24:26.826Z,5.20
2019-03-17T02:26:59.208Z,5.20
2019-03-17T02:29:31.748Z,5.21
2019-03-17T02:32:04.098Z,5.22
2019-03-17T02:34:36.373Z,5.23
2019-03-17T02:37:07.866Z,5.26
2019-03-17T02:39:39.969Z,5.25
2019-03-17T02:42:13.137Z,5.20
2019-03-17T02:44:45.660Z,5.23
2019-03-17T02:47:17.847Z,5.23
2019-03-17T02:49:50.623Z,5.22
2019-03-17T02:52:23.221Z,5.22
2019-03-17T02:54:55.528Z,5.25
2019-03-17T02:57:27.974Z,5.25
2019-03-17T03:00:00.813Z,5.28
2019-03-17T03:02:33.652Z,5.31
2019-03-17T03:05:06.745Z,5.33
2019-03-17T03:07:39.303Z,5.31
2019-03-17T03:10:11.822Z,5.32
2019-03-17T03:12:44.158Z,5.33
2019-03-17T03:15:15.377Z,5.32
2019-03-17T03:17:47.474Z,5.30
2019-03-17T03:20:19.890Z,5.30
2019-03-17T03:22:52.438Z,5.30
2019-03-17T03:25:24.768Z,5.32
2019-03-17T03:27:57.228Z,5.35
2019-03-17T03:30:29.742Z,5.35
2019-03-17T03:33:02.430Z,5.38
2019-03-17T03:35:34.922Z,5.31
2019-03-17T03:38:07.322Z,5.36
2019-03-17T03:40:39.767Z,5.36
2019-03-17T03:43:12.257Z,5.37
2019-03-17T03:45:44.637Z,5.39
2019-03-17T03:48:17.104Z,5.41
2019-03-17T03:50:49.527Z,5.43
2019-03-17T03:53:21.974Z,5.47
2019-03-17T03:55:54.688Z,5.49
2019-03-17T03:58:27.097Z,5.49
2019-03-17T04:00:59.489Z,5.52
2019-03-17T04:03:31.928Z,5.56
2019-03-17T04:06:04.258Z,5.58
2019-03-17T04:08:35.451Z,5.61
2019-03-17T04:11:08.040Z,5.65
2019-03-17T04:13:40.451Z,5.66
2019-03-17T04:16:12.849Z,5.69
2019-03-17T04:18:45.202Z,5.72
2019-03-17T04:21:17.757Z,5.75
2019-03-17T04:23:50.154Z,5.79
2019-03-17T04:26:22.719Z,5.80
2019-03-17T04:28:55.229Z,5.81
2019-03-17T04:31:27.478Z,5.84
2019-03-17T04:33:59.998Z,5.86
2019-03-17T04:36:39.951Z,5.87
2019-03-17T04:39:07.999Z,5.96
2019-03-17T04:41:40.509Z,5.97
2019-03-17T04:44:20.949Z,5.98
2019-03-17T04:46:47.047Z,6.02
2019-03-17T04:49:19.548Z,6.04
2019-03-17T04:51:51.878Z,6.10
2019-03-17T04:54:24.297Z,6.14
2019-03-17T04:56:56.707Z,6.18
2019-03-17T04:59:29.078Z,6.18
2019-03-17T05:02:01.807Z,6.19
2019-03-17T05:04:34.289Z,6.28
2019-03-17T05:07:06.678Z,6.36
2019-03-17T05:09:39.017Z,6.44
2019-03-17T05:12:13.157Z,6.46
2019-03-17T05:14:44.445Z,6.47
2019-03-17T05:17:16.741Z,6.50
2019-03-17T05:19:49.237Z,6.53
2019-03-17T05:22:22.297Z,6.58
2019-03-17T05:24:54.717Z,6.73
2019-03-17T05:27:27.168Z,6.77
2019-03-17T05:29:59.645Z,6.87
2019-03-17T05:32:32.154Z,6.97
2019-03-17T05:35:04.776Z,7.00
2019-03-17T05:37:37.127Z,7.07
2019-03-17T05:40:09.667Z,7.15
2019-03-17T05:42:42.166Z,7.24
2019-03-17T05:45:14.628Z,7.29
2019-03-17T05:47:47.107Z,7.34
2019-03-17T05:50:19.525Z,7.38
2019-03-17T05:52:52.145Z,7.46
2019-03-17T05:55:24.425Z,7.52
2019-03-17T05:57:57.315Z,7.54
2019-03-17T06:00:29.780Z,7.57
2019-03-17T06:03:02.454Z,7.63
2019-03-17T06:05:34.747Z,7.66
2019-03-17T06:08:07.197Z,7.70
2019-03-17T06:10:39.485Z,7.75
2019-03-17T06:13:12.771Z,7.81
2019-03-17T06:15:45.127Z,7.86
2019-03-17T06:18:17.977Z,7.91
2019-03-17T06:20:50.456Z,7.97
2019-03-17T06:23:21.665Z,8.03
2019-03-17T06:25:53.863Z,8.10
2019-03-17T06:28:26.490Z,8.15
2019-03-17T06:30:59.058Z,8.20
2019-03-17T06:33:31.675Z,8.28
2019-03-17T06:36:04.107Z,8.32
2019-03-17T06:38:36.585Z,8.35
2019-03-17T06:41:12.075Z,8.39
2019-03-17T06:43:44.621Z,8.39
2019-03-17T06:46:16.998Z,8.42
2019-03-17T06:48:49.568Z,8.44
2019-03-17T06:51:22.112Z,8.47
2019-03-17T06:53:56.568Z,8.48
2019-03-17T06:56:29.137Z,8.48
2019-03-17T06:59:00.505Z,8.48
2019-03-17T07:01:32.707Z,8.47
2019-03-17T07:04:05.196Z,8.47
2019-03-17T07:06:37.666Z,8.51
2019-03-17T07:09:10.144Z,8.48
2019-03-17T07:11:42.457Z,8.56
2019-03-17T07:14:15.067Z,8.60
2019-03-17T07:16:48.615Z,8.69
2019-03-17T07:19:21.156Z,8.74
2019-03-17T07:21:53.544Z,8.86
2019-03-17T07:24:26.057Z,8.95
2019-03-17T07:26:58.528Z,9.05
2019-03-17T07:29:32.019Z,9.18
2019-03-17T07:32:04.562Z,9.29
2019-03-17T07:34:37.435Z,9.44
2019-03-17T07:37:09.895Z,9.61
2019-03-17T07:39:42.476Z,9.84
2019-03-17T07:42:14.995Z,10.48
2019-03-17T07:44:47.494Z,10.79
2019-03-17T07:47:20.795Z,11.13
2019-03-17T07:49:53.155Z,11.22
2019-03-17T07:52:25.636Z,11.55
2019-03-17T07:54:58.614Z,11.88
2019-03-17T07:57:31.395Z,12.04
2019-03-17T08:00:03.924Z,12.34
2019-03-17T08:02:36.477Z,12.65
2019-03-17T08:05:09.237Z,12.84
2019-03-17T08:07:41.867Z,13.03
2019-03-17T08:10:14.717Z,12.78
2019-03-17T08:12:47.835Z,12.56
2019-03-17T08:15:20.648Z,12.34
2019-03-17T08:17:53.048Z,12.28
2019-03-17T08:20:25.794Z,12.18
2019-03-17T08:22:58.360Z,12.88
2019-03-17T08:25:31.055Z,13.28
2019-03-17T08:28:03.526Z,13.69
2019-03-17T08:30:36.347Z,13.77
2019-03-17T08:33:08.895Z,14.20
2019-03-17T08:35:41.396Z,14.53
2019-03-17T08:38:21.930Z,14.40
2019-03-17T08:40:48.365Z,14.24
2019-03-17T08:43:20.782Z,14.04
2019-03-17T08:45:53.456Z,14.42
2019-03-17T08:48:25.945Z,14.78
2019-03-17T08:50:58.775Z,15.16
2019-03-17T08:53:31.226Z,15.16
2019-03-17T08:56:04.135Z,14.94
2019-03-17T08:58:36.768Z,14.68
2019-03-17T09:01:12.077Z,14.46
2019-03-17T09:03:49.237Z,14.38
2019-03-17T09:06:22.456Z,14.50
2019-03-17T09:08:54.954Z,14.67
2019-03-17T09:11:27.337Z,15.13
2019-03-17T09:13:59.855Z,15.81
2019-03-17T09:16:32.987Z,16.57
2019-03-17T09:19:05.657Z,16.40
2019-03-17T09:21:40.568Z,15.24
2019-03-17T09:24:26.338Z,15.03
2019-03-17T09:27:04.410Z,15.62
2019-03-17T09:29:37.037Z,15.74
2019-03-17T09:32:11.755Z,15.99
2019-03-17T09:34:44.267Z,15.92
2019-03-17T09:37:27.744Z,15.95
2019-03-17T09:40:13.146Z,15.86
2019-03-17T09:42:46.523Z,15.97
2019-03-17T09:45:45.835Z,16.20
2019-03-17T09:48:22.687Z,16.05
2019-03-17T09:51:04.147Z,16.22
2019-03-17T09:53:40.422Z,16.03
2019-03-17T09:56:13.057Z,15.41
2019-03-17T09:58:49.926Z,15.26
2019-03-17T10:01:22.637Z,15.03
2019-03-17T10:07:04.255Z,14.66
2019-03-17T10:09:44.056Z,15.25
2019-03-17T10:12:16.585Z,15.98
2019-03-17T10:15:36.106Z,16.24
2019-03-17T10:21:44.697Z,16.57
2019-03-17T10:24:17.387Z,18.02
2019-03-17T10:26:49.869Z,18.29
2019-03-17T10:29:22.827Z,18.43
2019-03-17T10:31:55.327Z,18.15
2019-03-17T10:34:27.677Z,18.56
2019-03-17T10:37:00.315Z,19.35
2019-03-17T10:39:32.779Z,19.54
2019-03-17T10:42:06.676Z,19.58
2019-03-17T10:44:40.118Z,19.87
2019-03-17T10:47:17.945Z,19.63
2019-03-17T10:49:53.175Z,19.70
2019-03-17T10:55:55.694Z,20.11
2019-03-17T10:58:22.021Z,19.75
2019-03-17T11:04:19.286Z,18.66
2019-03-17T11:06:55.927Z,18.32
2019-03-17T11:09:31.045Z,18.55
2019-03-17T11:12:20.309Z,19.24
2019-03-17T11:18:41.362Z,18.83
2019-03-17T11:21:32.408Z,18.85
2019-03-17T11:24:07.476Z,19.05
2019-03-17T11:26:45.127Z,19.61
2019-03-17T11:30:12.694Z,19.82
2019-03-17T11:33:43.956Z,19.92
2019-03-17T11:39:43.987Z,20.57
2019-03-17T11:42:23.257Z,20.83
2019-03-17T11:48:56.556Z,21.36
2019-03-17T11:51:50.596Z,21.36
2019-03-17T11:54:36.139Z,21.42
2019-03-17T12:01:40.333Z,21.68
2019-03-17T12:04:31.696Z,21.76
2019-03-17T12:07:04.129Z,21.88
2019-03-17T12:09:36.475Z,21.67
2019-03-17T12:12:09.197Z,21.92
2019-03-17T12:14:46.540Z,22.21
2019-03-17T12:17:22.173Z,22.03
2019-03-17T12:20:27.502Z,22.27
2019-03-17T12:29:42.395Z,22.92
2019-03-17T12:33:18.237Z,22.62
2019-03-17T12:39:47.041Z,23.03
2019-03-17T12:46:47.080Z,22.28
2019-03-17T12:54:15.315Z,22.30
2019-03-17T13:12:27.866Z,22.18
2019-03-17T13:26:06.876Z,20.17
2019-03-17T13:39:05.025Z,20.38
2019-03-17T13:41:37.761Z,20.51
2019-03-17T13:44:10.475Z,20.67
2019-03-17T13:47:44.987Z,20.60
2019-03-17T14:09:52.642Z,19.86
2019-03-17T14:49:15.056Z,20.16
2019-03-17T14:56:08.789Z,19.77
2019-03-17T14:58:25.540Z,19.67
2019-03-17T15:00:58.157Z,19.53
2019-03-17T15:03:30.752Z,19.49
2019-03-17T15:06:03.309Z,19.43
2019-03-17T15:08:36.807Z,19.31
2019-03-17T15:12:04.996Z,19.19
2019-03-17T15:14:54.371Z,19.01
2019-03-17T15:17:30.737Z,18.63
2019-03-17T15:20:05.877Z,18.57
2019-03-17T15:31:05.661Z,18.15
2019-03-17T15:33:31.054Z,18.17
2019-03-17T15:36:06.084Z,18.04
2019-03-17T15:40:13.886Z,17.91
2019-03-17T15:45:15.813Z,17.69
2019-03-17T15:55:14.738Z,17.43
2019-03-17T16:01:27.734Z,17.39
2019-03-17T16:07:44.684Z,17.01
2019-03-17T16:11:30.163Z,16.86
2019-03-17T16:14:22.608Z,16.91
2019-03-17T16:17:41.345Z,16.83
2019-03-17T16:20:22.047Z,16.64
2019-03-17T16:30:00.709Z,15.78
2019-03-17T16:33:01.460Z,15.65
2019-03-17T16:39:27.320Z,15.25
2019-03-17T16:42:00.047Z,15.00
2019-03-17T16:44:34.937Z,14.80
2019-03-17T16:47:26.821Z,14.69
2019-03-17T16:50:38.036Z,14.62
2019-03-17T16:54:03.795Z,14.48
2019-03-17T17:02:44.046Z,14.53
2019-03-17T17:09:45.914Z,14.25
2019-03-17T17:11:35.514Z,14.06
2019-03-17T17:14:27.914Z,13.95
2019-03-17T17:17:07.905Z,13.80
2019-03-17T17:19:40.727Z,13.75
2019-03-17T17:22:28.205Z,13.69
2019-03-17T17:25:14.925Z,13.54
2019-03-17T17:28:12.074Z,13.45
2019-03-17T17:34:31.548Z,13.21
2019-03-17T17:43:36.721Z,12.89
2019-03-17T17:46:32.602Z,12.81
2019-03-17T17:49:05.196Z,12.79
2019-03-17T17:51:43.616Z,12.80
2019-03-17T17:54:17.683Z,12.86
2019-03-17T17:56:50.054Z,12.87
2019-03-17T17:59:22.678Z,12.84
2019-03-17T18:01:57.525Z,12.78
2019-03-17T18:04:30.165Z,12.77
2019-03-17T18:07:03.355Z,12.66
2019-03-17T18:09:35.903Z,12.62
2019-03-17T18:12:20.331Z,12.59
2019-03-17T18:14:51.997Z,12.56
2019-03-17T18:17:25.994Z,12.57
2019-03-17T18:19:58.455Z,12.61
2019-03-17T18:22:30.264Z,12.61
2019-03-17T18:25:03.974Z,12.58
2019-03-17T18:27:38.225Z,12.48
2019-03-17T18:30:13.325Z,12.35
2019-03-17T18:32:47.051Z,12.22
2019-03-17T18:35:19.491Z,12.08
2019-03-17T18:40:48.645Z,11.97
2019-03-17T18:43:21.415Z,11.88
2019-03-17T18:46:11.542Z,11.88
2019-03-17T18:48:45.635Z,11.84
2019-03-17T18:51:25.305Z,11.81
2019-03-17T18:53:58.398Z,11.74
2019-03-17T19:00:15.516Z,11.57
2019-03-17T19:02:48.475Z,11.47
2019-03-17T19:08:30.503Z,11.52
2019-03-17T19:11:04.988Z,11.46
2019-03-17T19:13:39.045Z,11.42
2019-03-17T19:16:11.615Z,11.33
2019-03-17T19:18:44.561Z,11.30
2019-03-17T19:21:17.075Z,11.19
2019-03-17T19:23:49.705Z,11.17
2019-03-17T19:26:22.107Z,11.11
2019-03-17T19:29:00.926Z,11.04
2019-03-17T19:31:33.394Z,10.96
2019-03-17T19:34:06.035Z,10.91
2019-03-17T19:36:48.705Z,10.86
2019-03-17T19:39:21.624Z,10.82
2019-03-17T19:41:54.547Z,10.77
2019-03-17T19:44:27.025Z,10.78
2019-03-17T19:46:59.535Z,10.77
2019-03-17T19:49:32.090Z,10.81
2019-03-17T19:52:04.845Z,10.83
2019-03-17T19:54:37.408Z,10.86
2019-03-17T19:57:10.395Z,10.85
2019-03-17T19:59:42.899Z,10.78
2019-03-17T20:02:15.844Z,10.76
2019-03-17T20:04:48.394Z,10.75
2019-03-17T20:07:20.835Z,10.72
2019-03-17T20:09:53.395Z,10.70
2019-03-17T20:15:43.706Z,10.50
2019-03-17T20:18:19.065Z,10.49
2019-03-17T20:27:53.123Z,10.47
2019-03-17T20:30:29.728Z,10.39
2019-03-17T20:33:02.265Z,10.27
2019-03-17T20:35:34.635Z,10.19
2019-03-17T20:38:07.225Z,10.02
2019-03-17T20:40:43.776Z,9.95
2019-03-17T20:43:34.300Z,9.90
2019-03-17T20:45:54.885Z,9.83
2019-03-17T20:48:27.473Z,9.79
2019-03-17T20:51:00.095Z,9.88
2019-03-17T20:53:32.686Z,9.97
2019-03-17T20:56:06.275Z,9.91
2019-03-17T20:58:41.465Z,9.83
2019-03-17T21:01:18.265Z,9.71
2019-03-17T21:03:50.945Z,9.71
2019-03-17T21:06:23.406Z,9.72
2019-03-17T21:08:54.686Z,9.62
2019-03-17T21:11:26.979Z,9.52
2019-03-17T21:14:00.835Z,9.50
2019-03-17T21:16:33.347Z,9.46
2019-03-17T21:19:05.825Z,9.38
2019-03-17T21:21:40.185Z,9.36
2019-03-17T21:24:13.555Z,9.42
2019-03-17T21:26:47.005Z,9.53
2019-03-17T21:29:21.068Z,9.57
2019-03-17T21:31:53.555Z,9.61
2019-03-17T21:34:27.665Z,9.63
2019-03-17T21:37:22.830Z,9.70
2019-03-17T21:43:58.600Z,9.43
2019-03-17T21:46:31.105Z,9.50
2019-03-17T21:52:29.334Z,9.45
2019-03-17T21:55:04.984Z,9.47
2019-03-17T21:57:56.626Z,9.47
2019-03-17T22:07:04.544Z,9.44
2019-03-17T22:12:26.697Z,9.46
2019-03-17T22:15:08.044Z,9.42
2019-03-17T22:17:49.992Z,9.44
2019-03-17T22:24:58.463Z,9.53
2019-03-17T22:27:46.604Z,9.53
2019-03-17T22:31:14.683Z,9.58
2019-03-17T22:33:52.924Z,9.62
2019-03-17T22:36:25.433Z,9.64
2019-03-17T22:39:04.496Z,9.65
2019-03-17T22:42:47.093Z,9.72
2019-03-17T22:49:07.042Z,9.89
2019-03-17T22:51:42.737Z,9.99
2019-03-17T22:58:04.876Z,10.25
2019-03-17T23:00:41.674Z,10.20
2019-03-17T23:03:15.825Z,10.47
2019-03-17T23:05:48.428Z,10.72
2019-03-17T23:08:21.025Z,10.74
2019-03-17T23:10:54.031Z,10.61
2019-03-17T23:13:31.465Z,10.38
2019-03-17T23:16:33.716Z,10.17
2019-03-17T23:19:42.335Z,9.91
2019-03-17T23:22:22.675Z,9.65
2019-03-17T23:25:33.589Z,9.46
2019-03-17T23:28:53.253Z,9.31
2019-03-17T23:32:06.715Z,9.24
2019-03-17T23:42:16.763Z,8.95
2019-03-17T23:48:47.455Z,8.65
2019-03-17T23:51:21.585Z,8.55
2019-03-17T23:53:54.038Z,8.48
2019-03-17T23:56:26.567Z,8.40
2019-03-17T23:58:59.245Z,8.29
